Time;durP1;ratioP1;P1;durP2;ratioP2;P2;SDS_P1;SDS_P2;PMS_P1;PMS_P2;Temp;Humidity;BMP_temperature;BMP_pressure;BME280_temperature;BME280_humidity;BME280_pressure;Samples;Min_cycle;Max_cycle;Signal;HPM_P1;HPM_P2
2023/07/02 00:08:02;;;;;;;;;;;16.70;99.90;;;;;;21165890;28;19973;-74
2023/07/02 00:18:02;;;;;;;;;;;16.60;99.90;;;;;;21165783;28;19919;-74
2023/07/02 00:28:03;;;;;;;;;;;16.60;99.90;;;;;;21165172;28;19935;-74
2023/07/02 00:38:04;;;;;;;;;;;16.60;99.90;;;;;;21164600;28;19919;-75
2023/07/02 00:48:04;;;;;;;;;;;16.60;99.90;;;;;;21190677;27;20293;-74
2023/07/02 00:58:05;;;;;;;;;;;16.60;99.90;;;;;;21177558;27;19919;-74
2023/07/02 01:08:06;;;;;;;;;;;16.60;99.90;;;;;;21205691;27;19915;-74
2023/07/02 01:18:07;;;;;;;;;;;16.60;99.90;;;;;;21179877;27;19919;-74
2023/07/02 01:28:08;;;;;;;;;;;16.60;99.90;;;;;;21201878;27;19916;-74
2023/07/02 01:38:09;;;;;;;;;;;16.70;99.90;;;;;;21200960;27;20598;-74
2023/07/02 01:48:09;;;;;;;;;;;16.60;99.90;;;;;;21199714;27;19943;-74
2023/07/02 01:58:10;;;;;;;;;;;16.70;99.90;;;;;;21181291;27;20501;-74
2023/07/02 02:08:10;;;;;;;;;;;16.70;99.90;;;;;;21185006;27;19916;-74
2023/07/02 02:18:12;;;;;;;;;;;16.70;99.90;;;;;;21186368;27;19912;-73
2023/07/02 02:28:13;;;;;;;;;;;16.60;99.90;;;;;;21174882;28;19968;-74
2023/07/02 02:38:14;;;;;;;;;;;16.60;99.90;;;;;;21144959;28;19912;-74
2023/07/02 02:48:16;;;;;;;;;;;16.60;99.90;;;;;;21173698;28;20418;-74
2023/07/02 02:58:17;;;;;;;;;;;16.60;99.90;;;;;;21154534;28;20433;-74
2023/07/02 03:08:18;;;;;;;;;;;16.50;99.90;;;;;;21171704;28;19986;-74
2023/07/02 03:18:18;;;;;;;;;;;16.40;99.90;;;;;;21171285;28;19919;-74
2023/07/02 03:28:19;;;;;;;;;;;16.30;99.90;;;;;;21170119;28;19963;-75
2023/07/02 03:38:19;;;;;;;;;;;16.20;99.90;;;;;;21169703;28;19954;-74
2023/07/02 03:48:20;;;;;;;;;;;16.20;99.90;;;;;;21167633;28;19973;-74
2023/07/02 03:58:21;;;;;;;;;;;16.20;99.90;;;;;;21167759;28;20335;-74
2023/07/02 04:08:22;;;;;;;;;;;16.20;99.90;;;;;;21165443;28;20014;-74
2023/07/02 04:18:22;;;;;;;;;;;16.10;99.90;;;;;;21165737;28;19953;-74
2023/07/02 04:28:23;;;;;;;;;;;16.10;99.90;;;;;;21165004;28;19916;-74
2023/07/02 04:38:23;;;;;;;;;;;16.00;99.90;;;;;;21164684;28;19912;-74
2023/07/02 04:48:24;;;;;;;;;;;16.00;99.90;;;;;;21163537;28;19916;-75
2023/07/02 04:58:25;;;;;;;;;;;15.90;99.90;;;;;;21161964;28;19912;-74
2023/07/02 05:08:25;;;;;;;;;;;16.00;99.90;;;;;;21162196;28;20378;-74
2023/07/02 05:18:26;;;;;;;;;;;15.90;99.90;;;;;;21161354;28;19919;-74
2023/07/02 05:28:27;;;;;;;;;;;16.00;99.90;;;;;;21160534;28;20293;-75
2023/07/02 05:38:27;;;;;;;;;;;16.00;99.90;;;;;;21159505;28;19911;-75
2023/07/02 05:48:28;;;;;;;;;;;16.10;99.90;;;;;;21159134;28;20590;-75
2023/07/02 05:58:29;;;;;;;;;;;16.20;99.90;;;;;;21158844;28;19915;-75
2023/07/02 06:08:30;;;;;;;;;;;16.20;99.90;;;;;;21158187;28;19969;-75
2023/07/02 06:18:31;;;;;;;;;;;16.30;99.90;;;;;;21157084;28;20090;-74
2023/07/02 06:28:31;;;;;;;;;;;16.40;99.90;;;;;;21156960;28;19966;-74
2023/07/02 06:38:32;;;;;;;;;;;16.50;99.90;;;;;;21154460;28;19963;-74
2023/07/02 06:48:32;;;;;;;;;;;16.50;99.90;;;;;;21157798;28;19915;-76
2023/07/02 06:58:33;;;;;;;;;;;16.60;99.90;;;;;;21156305;28;20002;-76
2023/07/02 07:08:37;;;;;;;;;;;16.80;99.90;;;;;;21137731;28;19915;-76
2023/07/02 07:18:37;;;;;;;;;;;17.00;99.90;;;;;;21155368;28;19911;-77
2023/07/02 07:28:38;;;;;;;;;;;17.30;99.90;;;;;;21166110;28;20298;-76
2023/07/02 07:38:38;;;;;;;;;;;17.10;99.90;;;;;;21175180;27;19912;-77
2023/07/02 07:48:39;;;;;;;;;;;17.00;99.90;;;;;;21177624;27;19915;-76
2023/07/02 07:58:40;;;;;;;;;;;16.90;99.90;;;;;;21187619;27;20286;-76
2023/07/02 08:08:40;;;;;;;;;;;16.80;99.90;;;;;;21201857;27;19919;-76
2023/07/02 08:18:41;;;;;;;;;;;16.70;99.90;;;;;;21209781;27;19922;-76
2023/07/02 08:28:42;;;;;;;;;;;16.90;99.90;;;;;;21165639;28;19960;-76
2023/07/02 08:38:43;;;;;;;;;;;17.00;99.90;;;;;;21166764;27;19951;-75
2023/07/02 08:48:44;;;;;;;;;;;16.90;99.90;;;;;;21211578;27;19923;-76
2023/07/02 08:58:45;;;;;;;;;;;16.70;99.90;;;;;;21190641;27;19915;-76
2023/07/02 09:08:45;;;;;;;;;;;16.60;99.90;;;;;;21247501;27;19968;-75
2023/07/02 09:18:54;;;;;;;;;;;16.70;99.90;;;;;;21246874;27;20350;-76
2023/07/02 09:29:00;;;;;;;;;;;17.00;99.90;;;;;;21158480;27;19958;-76
2023/07/02 09:39:01;;;;;;;;;;;17.70;99.90;;;;;;21160329;28;19972;-75
2023/07/02 09:49:01;;;;;;;;;;;17.50;99.90;;;;;;21158688;28;19959;-76
2023/07/02 09:59:02;;;;;;;;;;;18.00;99.90;;;;;;21158679;28;20418;-76
2023/07/02 10:09:03;;;;;;;;;;;20.10;99.90;;;;;;21139692;28;20410;-77
2023/07/02 10:19:10;;;;;;;;;;;21.90;99.90;;;;;;21227554;27;19940;-76
2023/07/02 10:29:18;;;;;;;;;;;21.30;99.90;;;;;;21073106;28;19916;-76
2023/07/02 10:39:19;;;;;;;;;;;21.40;99.90;;;;;;21085974;28;20011;-78
2023/07/02 10:49:20;;;;;;;;;;;21.40;99.90;;;;;;21079044;28;20329;-79
2023/07/02 10:59:27;;;;;;;;;;;22.60;99.90;;;;;;21158713;28;20362;-78
2023/07/02 11:09:27;;;;;;;;;;;22.80;99.90;;;;;;21231633;27;19915;-78
2023/07/02 11:19:28;;;;;;;;;;;22.80;99.90;;;;;;21232713;28;19922;-78
2023/07/02 11:29:29;;;;;;;;;;;22.90;99.90;;;;;;21228032;28;19941;-78
2023/07/02 11:39:30;;;;;;;;;;;22.20;99.90;;;;;;21233383;28;19911;-78
2023/07/02 11:49:31;;;;;;;;;;;23.40;99.90;;;;;;21243001;28;19923;-78
2023/07/02 11:59:36;;;;;;;;;;;22.80;99.90;;;;;;21176253;27;20004;-74
2023/07/02 12:09:39;;;;;;;;;;;24.00;99.90;;;;;;21153362;28;19915;-76
2023/07/02 12:19:40;;;;;;;;;;;23.40;99.90;;;;;;21159439;27;20401;-77
2023/07/02 12:29:40;;;;;;;;;;;22.40;99.90;;;;;;21216929;27;19976;-75
2023/07/02 12:39:41;;;;;;;;;;;23.00;99.90;;;;;;21205984;27;19912;-75
2023/07/02 12:49:42;;;;;;;;;;;22.60;99.90;;;;;;21201915;27;19958;-75
2023/07/02 12:59:42;;;;;;;;;;;22.50;99.90;;;;;;21200463;27;19949;-76
2023/07/02 13:09:43;;;;;;;;;;;22.60;99.90;;;;;;21196416;27;20348;-76
2023/07/02 13:19:44;;;;;;;;;;;22.40;99.90;;;;;;21202188;27;19911;-76
2023/07/02 13:29:44;;;;;;;;;;;22.40;99.90;;;;;;21202493;27;20397;-76
2023/07/02 13:39:47;;;;;;;;;;;22.70;99.90;;;;;;21163545;27;21346;-75
2023/07/02 13:49:48;;;;;;;;;;;22.90;99.90;;;;;;21159758;28;19916;-75
2023/07/02 13:59:49;;;;;;;;;;;22.40;99.90;;;;;;21159332;28;20326;-75
2023/07/02 14:09:50;;;;;;;;;;;23.90;99.90;;;;;;21158736;28;19918;-77
2023/07/02 14:19:50;;;;;;;;;;;23.80;99.90;;;;;;21159749;28;19911;-77
2023/07/02 14:29:51;;;;;;;;;;;24.50;99.90;;;;;;21157896;28;19941;-76
2023/07/02 14:39:51;;;;;;;;;;;24.00;99.90;;;;;;21155664;28;19916;-76
2023/07/02 14:49:52;;;;;;;;;;;24.80;99.90;;;;;;21174476;28;20289;-76
2023/07/02 14:59:53;;;;;;;;;;;23.80;99.90;;;;;;21173562;28;19947;-76
2023/07/02 15:09:53;;;;;;;;;;;24.60;99.90;;;;;;21174355;28;19955;-76
2023/07/02 15:19:54;;;;;;;;;;;24.00;99.90;;;;;;21154628;28;19912;-76
2023/07/02 15:29:55;;;;;;;;;;;24.30;99.90;;;;;;21192238;27;19915;-76
2023/07/02 15:39:55;;;;;;;;;;;24.80;99.90;;;;;;21228900;27;19919;-77
2023/07/02 15:49:56;;;;;;;;;;;24.20;99.90;;;;;;21248007;27;19923;-77
2023/07/02 15:59:57;;;;;;;;;;;24.10;99.90;;;;;;21168877;28;19911;-76
2023/07/02 16:09:58;;;;;;;;;;;23.80;99.90;;;;;;21168154;28;20023;-77
2023/07/02 16:19:59;;;;;;;;;;;24.00;99.90;;;;;;21167848;28;19912;-77
2023/07/02 16:29:59;;;;;;;;;;;24.20;99.90;;;;;;21167277;28;19970;-77
2023/07/02 16:40:01;;;;;;;;;;;24.40;99.90;;;;;;21171220;27;19912;-76
2023/07/02 16:50:02;;;;;;;;;;;23.80;99.90;;;;;;21169758;27;20377;-76
2023/07/02 17:00:04;;;;;;;;;;;24.00;99.90;;;;;;21216205;27;20010;-76
2023/07/02 17:10:05;;;;;;;;;;;23.60;99.90;;;;;;21230112;27;20315;-76
2023/07/02 17:20:06;;;;;;;;;;;23.40;99.90;;;;;;21224842;22;19924;-75
2023/07/02 17:30:07;;;;;;;;;;;23.20;99.90;;;;;;21077441;28;19920;-76
2023/07/02 17:40:08;;;;;;;;;;;23.30;99.90;;;;;;21058920;28;19912;-75
2023/07/02 17:50:09;;;;;;;;;;;23.50;99.90;;;;;;21128206;28;19958;-76
2023/07/02 18:00:10;;;;;;;;;;;23.40;99.90;;;;;;21075207;28;20011;-75
2023/07/02 18:10:11;;;;;;;;;;;24.00;99.90;;;;;;21068610;28;19923;-75
2023/07/02 18:20:14;;;;;;;;;;;24.10;99.90;;;;;;21081161;28;20294;-76
2023/07/02 18:30:15;;;;;;;;;;;24.70;98.80;;;;;;21073950;28;19916;-76
2023/07/02 18:40:21;;;;;;;;;;;24.60;98.00;;;;;;21073643;28;20309;-76
2023/07/02 18:50:23;;;;;;;;;;;24.40;98.70;;;;;;21055249;28;19920;-76
2023/07/02 19:00:23;;;;;;;;;;;22.90;99.90;;;;;;21077540;28;19912;-75
2023/07/02 19:10:24;;;;;;;;;;;22.20;99.90;;;;;;21094803;28;20289;-75
2023/07/02 19:20:24;;;;;;;;;;;21.70;99.90;;;;;;21099211;27;19920;-74
2023/07/02 19:30:25;;;;;;;;;;;21.40;99.90;;;;;;21069182;28;20006;-74
2023/07/02 19:40:26;;;;;;;;;;;21.00;99.90;;;;;;21086243;28;19912;-74
2023/07/02 19:50:27;;;;;;;;;;;20.50;99.90;;;;;;21086182;28;19916;-74
2023/07/02 20:00:28;;;;;;;;;;;19.80;99.90;;;;;;21169409;28;20010;-74
2023/07/02 20:10:29;;;;;;;;;;;19.50;99.90;;;;;;21168019;28;19967;-74
2023/07/02 20:20:30;;;;;;;;;;;19.10;99.90;;;;;;21160450;28;20015;-74
2023/07/02 20:30:31;;;;;;;;;;;18.90;99.90;;;;;;21094727;28;20508;-74
2023/07/02 20:40:32;;;;;;;;;;;18.60;99.90;;;;;;21166727;28;19916;-74
2023/07/02 20:50:35;;;;;;;;;;;18.60;99.90;;;;;;21165441;28;19923;-73
2023/07/02 21:00:35;;;;;;;;;;;18.40;99.90;;;;;;21102596;28;19954;-73
2023/07/02 21:10:39;;;;;;;;;;;18.20;99.90;;;;;;21079320;28;19916;-74
2023/07/02 21:20:42;;;;;;;;;;;17.40;99.90;;;;;;21060302;28;19924;-73
2023/07/02 21:30:46;;;;;;;;;;;17.00;99.90;;;;;;21077097;28;19916;-74
2023/07/02 21:40:46;;;;;;;;;;;16.50;99.90;;;;;;21076575;28;20468;-75
2023/07/02 21:50:47;;;;;;;;;;;16.20;99.90;;;;;;21125504;28;19951;-74
2023/07/02 22:00:48;;;;;;;;;;;16.40;99.90;;;;;;21097894;28;20540;-76
2023/07/02 22:10:48;;;;;;;;;;;15.70;99.90;;;;;;21080594;28;19946;-76
2023/07/02 22:20:49;;;;;;;;;;;15.90;99.90;;;;;;21075298;28;19927;-76
2023/07/02 22:30:50;;;;;;;;;;;15.80;99.90;;;;;;21090139;28;19923;-76
2023/07/02 22:40:51;;;;;;;;;;;16.10;99.90;;;;;;21082331;28;20370;-75
2023/07/02 22:50:51;;;;;;;;;;;16.00;99.90;;;;;;21065001;28;19917;-75
2023/07/02 23:00:58;;;;;;;;;;;15.90;99.90;;;;;;21102756;28;19973;-75
2023/07/02 23:10:58;;;;;;;;;;;15.90;99.90;;;;;;21078453;28;19916;-75
2023/07/02 23:21:02;;;;;;;;;;;15.90;99.90;;;;;;21095991;22;20001;-75
2023/07/02 23:31:04;;;;;;;;;;;15.70;99.90;;;;;;21098520;28;19920;-74
2023/07/02 23:41:06;;;;;;;;;;;15.60;99.90;;;;;;21171575;28;20396;-74
2023/07/02 23:51:06;;;;;;;;;;;15.60;99.90;;;;;;21170255;28;19920;-75
